sensor_id;sensor_type;location;lat;lon;timestamp;P1;durP1;ratioP1;P2;durP2;ratioP2
45887;SDS011;31595;51.418;7.572;2024-03-08T00:01:45;24.15;;;20.35;;
45887;SDS011;31595;51.418;7.572;2024-03-08T00:04:12;26.35;;;19.95;;
45887;SDS011;31595;51.418;7.572;2024-03-08T00:06:40;27.25;;;19.33;;
45887;SDS011;31595;51.418;7.572;2024-03-08T00:09:07;27.92;;;21.67;;
45887;SDS011;31595;51.418;7.572;2024-03-08T00:11:34;26.48;;;20.00;;
45887;SDS011;31595;51.418;7.572;2024-03-08T00:14:01;25.67;;;20.42;;
45887;SDS011;31595;51.418;7.572;2024-03-08T00:16:28;26.73;;;20.70;;
45887;SDS011;31595;51.418;7.572;2024-03-08T00:18:54;25.25;;;20.65;;
45887;SDS011;31595;51.418;7.572;2024-03-08T00:21:21;23.60;;;19.67;;
45887;SDS011;31595;51.418;7.572;2024-03-08T00:23:49;27.08;;;19.83;;
45887;SDS011;31595;51.418;7.572;2024-03-08T00:26:16;27.40;;;19.88;;
45887;SDS011;31595;51.418;7.572;2024-03-08T00:28:43;29.08;;;20.98;;
45887;SDS011;31595;51.418;7.572;2024-03-08T00:31:10;27.02;;;21.67;;
45887;SDS011;31595;51.418;7.572;2024-03-08T00:33:37;26.52;;;21.05;;
45887;SDS011;31595;51.418;7.572;2024-03-08T00:36:05;27.55;;;21.20;;
45887;SDS011;31595;51.418;7.572;2024-03-08T00:38:33;30.38;;;20.75;;
45887;SDS011;31595;51.418;7.572;2024-03-08T00:41:01;28.95;;;22.05;;
45887;SDS011;31595;51.418;7.572;2024-03-08T00:43:28;29.38;;;22.30;;
45887;SDS011;31595;51.418;7.572;2024-03-08T00:45:55;33.35;;;23.63;;
45887;SDS011;31595;51.418;7.572;2024-03-08T00:48:23;26.92;;;21.67;;
45887;SDS011;31595;51.418;7.572;2024-03-08T00:50:50;27.33;;;21.52;;
45887;SDS011;31595;51.418;7.572;2024-03-08T00:53:16;27.05;;;20.63;;
45887;SDS011;31595;51.418;7.572;2024-03-08T00:55:43;27.88;;;20.75;;
45887;SDS011;31595;51.418;7.572;2024-03-08T00:58:13;29.67;;;23.13;;
45887;SDS011;31595;51.418;7.572;2024-03-08T01:00:40;27.05;;;21.67;;
45887;SDS011;31595;51.418;7.572;2024-03-08T01:03:06;29.10;;;21.15;;
45887;SDS011;31595;51.418;7.572;2024-03-08T01:05:33;27.58;;;21.17;;
45887;SDS011;31595;51.418;7.572;2024-03-08T01:08:00;28.00;;;20.65;;
45887;SDS011;31595;51.418;7.572;2024-03-08T01:10:28;26.42;;;21.10;;
45887;SDS011;31595;51.418;7.572;2024-03-08T01:12:55;29.92;;;21.13;;
45887;SDS011;31595;51.418;7.572;2024-03-08T01:15:23;31.00;;;21.77;;
45887;SDS011;31595;51.418;7.572;2024-03-08T01:17:50;25.40;;;20.70;;
45887;SDS011;31595;51.418;7.572;2024-03-08T01:20:17;26.75;;;21.65;;
45887;SDS011;31595;51.418;7.572;2024-03-08T01:22:44;27.58;;;21.55;;
45887;SDS011;31595;51.418;7.572;2024-03-08T01:25:11;28.17;;;20.63;;
45887;SDS011;31595;51.418;7.572;2024-03-08T01:27:38;30.95;;;22.95;;
45887;SDS011;31595;51.418;7.572;2024-03-08T01:30:05;27.83;;;22.55;;
45887;SDS011;31595;51.418;7.572;2024-03-08T01:32:34;28.75;;;21.75;;
45887;SDS011;31595;51.418;7.572;2024-03-08T01:35:01;29.80;;;21.92;;
45887;SDS011;31595;51.418;7.572;2024-03-08T01:37:28;29.00;;;22.42;;
45887;SDS011;31595;51.418;7.572;2024-03-08T01:39:56;29.10;;;20.98;;
45887;SDS011;31595;51.418;7.572;2024-03-08T01:42:22;29.80;;;22.42;;
45887;SDS011;31595;51.418;7.572;2024-03-08T01:44:49;29.15;;;22.42;;
45887;SDS011;31595;51.418;7.572;2024-03-08T01:47:17;29.15;;;22.65;;
45887;SDS011;31595;51.418;7.572;2024-03-08T01:49:45;29.02;;;21.45;;
45887;SDS011;31595;51.418;7.572;2024-03-08T01:52:11;31.17;;;23.17;;
45887;SDS011;31595;51.418;7.572;2024-03-08T01:54:38;30.77;;;22.60;;
45887;SDS011;31595;51.418;7.572;2024-03-08T01:57:06;32.08;;;23.55;;
45887;SDS011;31595;51.418;7.572;2024-03-08T01:59:33;30.95;;;23.13;;
45887;SDS011;31595;51.418;7.572;2024-03-08T02:02:00;31.20;;;21.92;;
45887;SDS011;31595;51.418;7.572;2024-03-08T02:04:28;28.92;;;21.48;;
45887;SDS011;31595;51.418;7.572;2024-03-08T02:06:57;29.67;;;22.05;;
45887;SDS011;31595;51.418;7.572;2024-03-08T02:09:24;30.20;;;21.85;;
45887;SDS011;31595;51.418;7.572;2024-03-08T02:11:51;28.80;;;21.92;;
45887;SDS011;31595;51.418;7.572;2024-03-08T02:14:20;32.28;;;23.27;;
45887;SDS011;31595;51.418;7.572;2024-03-08T02:16:47;33.63;;;24.08;;
45887;SDS011;31595;51.418;7.572;2024-03-08T02:19:13;31.70;;;22.42;;
45887;SDS011;31595;51.418;7.572;2024-03-08T02:21:41;30.60;;;23.20;;
45887;SDS011;31595;51.418;7.572;2024-03-08T02:24:09;32.47;;;21.92;;
45887;SDS011;31595;51.418;7.572;2024-03-08T02:26:35;31.77;;;22.77;;
45887;SDS011;31595;51.418;7.572;2024-03-08T02:29:02;31.00;;;23.05;;
45887;SDS011;31595;51.418;7.572;2024-03-08T02:31:30;31.25;;;23.08;;
45887;SDS011;31595;51.418;7.572;2024-03-08T02:33:57;32.75;;;22.85;;
45887;SDS011;31595;51.418;7.572;2024-03-08T02:36:25;29.42;;;22.33;;
45887;SDS011;31595;51.418;7.572;2024-03-08T02:38:53;30.45;;;22.70;;
45887;SDS011;31595;51.418;7.572;2024-03-08T02:41:21;30.75;;;22.38;;
45887;SDS011;31595;51.418;7.572;2024-03-08T02:43:48;29.80;;;22.88;;
45887;SDS011;31595;51.418;7.572;2024-03-08T02:46:16;29.48;;;21.33;;
45887;SDS011;31595;51.418;7.572;2024-03-08T02:48:42;33.22;;;21.63;;
45887;SDS011;31595;51.418;7.572;2024-03-08T02:51:09;29.70;;;21.58;;
45887;SDS011;31595;51.418;7.572;2024-03-08T02:53:37;30.10;;;22.40;;
45887;SDS011;31595;51.418;7.572;2024-03-08T02:56:05;31.42;;;21.95;;
45887;SDS011;31595;51.418;7.572;2024-03-08T02:58:34;30.67;;;22.08;;
45887;SDS011;31595;51.418;7.572;2024-03-08T03:01:01;28.90;;;22.00;;
45887;SDS011;31595;51.418;7.572;2024-03-08T03:03:27;29.70;;;21.67;;
45887;SDS011;31595;51.418;7.572;2024-03-08T03:05:53;33.28;;;22.40;;
45887;SDS011;31595;51.418;7.572;2024-03-08T03:08:21;32.92;;;24.27;;
45887;SDS011;31595;51.418;7.572;2024-03-08T03:10:49;28.05;;;21.27;;
45887;SDS011;31595;51.418;7.572;2024-03-08T03:13:17;30.17;;;21.92;;
45887;SDS011;31595;51.418;7.572;2024-03-08T03:15:46;31.30;;;22.00;;
45887;SDS011;31595;51.418;7.572;2024-03-08T03:18:12;31.73;;;22.45;;
45887;SDS011;31595;51.418;7.572;2024-03-08T03:20:39;32.08;;;22.65;;
45887;SDS011;31595;51.418;7.572;2024-03-08T03:23:08;29.20;;;22.70;;
45887;SDS011;31595;51.418;7.572;2024-03-08T03:25:35;28.98;;;22.40;;
45887;SDS011;31595;51.418;7.572;2024-03-08T03:28:04;31.83;;;21.77;;
45887;SDS011;31595;51.418;7.572;2024-03-08T03:30:34;30.92;;;22.42;;
45887;SDS011;31595;51.418;7.572;2024-03-08T03:33:01;32.67;;;23.25;;
45887;SDS011;31595;51.418;7.572;2024-03-08T03:35:32;28.58;;;21.05;;
45887;SDS011;31595;51.418;7.572;2024-03-08T03:37:59;31.85;;;21.45;;
45887;SDS011;31595;51.418;7.572;2024-03-08T03:40:32;31.77;;;22.50;;
45887;SDS011;31595;51.418;7.572;2024-03-08T03:42:58;30.55;;;22.25;;
45887;SDS011;31595;51.418;7.572;2024-03-08T03:45:25;30.77;;;22.17;;
45887;SDS011;31595;51.418;7.572;2024-03-08T03:47:54;31.25;;;22.02;;
45887;SDS011;31595;51.418;7.572;2024-03-08T03:50:20;31.77;;;23.27;;
45887;SDS011;31595;51.418;7.572;2024-03-08T03:52:49;32.13;;;22.38;;
45887;SDS011;31595;51.418;7.572;2024-03-08T03:55:15;29.23;;;21.73;;
45887;SDS011;31595;51.418;7.572;2024-03-08T03:57:42;33.47;;;22.67;;
45887;SDS011;31595;51.418;7.572;2024-03-08T04:00:11;33.50;;;22.83;;
45887;SDS011;31595;51.418;7.572;2024-03-08T04:02:38;31.63;;;23.00;;
45887;SDS011;31595;51.418;7.572;2024-03-08T04:05:07;32.92;;;22.02;;
45887;SDS011;31595;51.418;7.572;2024-03-08T04:07:34;30.15;;;21.92;;
45887;SDS011;31595;51.418;7.572;2024-03-08T04:10:01;29.10;;;21.67;;
45887;SDS011;31595;51.418;7.572;2024-03-08T04:12:28;28.42;;;21.08;;
45887;SDS011;31595;51.418;7.572;2024-03-08T04:14:56;31.00;;;21.38;;
45887;SDS011;31595;51.418;7.572;2024-03-08T04:17:22;31.20;;;21.88;;
45887;SDS011;31595;51.418;7.572;2024-03-08T04:19:50;32.55;;;22.27;;
45887;SDS011;31595;51.418;7.572;2024-03-08T04:22:18;32.15;;;22.05;;
45887;SDS011;31595;51.418;7.572;2024-03-08T04:24:45;32.35;;;22.92;;
45887;SDS011;31595;51.418;7.572;2024-03-08T04:27:12;32.97;;;22.08;;
45887;SDS011;31595;51.418;7.572;2024-03-08T04:29:39;31.35;;;21.95;;
45887;SDS011;31595;51.418;7.572;2024-03-08T04:32:07;30.65;;;21.33;;
45887;SDS011;31595;51.418;7.572;2024-03-08T04:34:34;30.77;;;21.98;;
45887;SDS011;31595;51.418;7.572;2024-03-08T04:37:01;30.17;;;21.75;;
45887;SDS011;31595;51.418;7.572;2024-03-08T04:39:31;31.02;;;21.55;;
45887;SDS011;31595;51.418;7.572;2024-03-08T04:41:59;29.75;;;21.33;;
45887;SDS011;31595;51.418;7.572;2024-03-08T04:44:26;31.88;;;22.52;;
45887;SDS011;31595;51.418;7.572;2024-03-08T04:46:52;31.70;;;22.48;;
45887;SDS011;31595;51.418;7.572;2024-03-08T04:49:19;31.75;;;22.67;;
45887;SDS011;31595;51.418;7.572;2024-03-08T04:51:47;30.70;;;21.25;;
45887;SDS011;31595;51.418;7.572;2024-03-08T04:54:14;31.60;;;23.00;;
45887;SDS011;31595;51.418;7.572;2024-03-08T04:56:42;30.90;;;21.65;;
45887;SDS011;31595;51.418;7.572;2024-03-08T04:59:08;32.88;;;22.63;;
45887;SDS011;31595;51.418;7.572;2024-03-08T05:01:35;30.67;;;22.15;;
45887;SDS011;31595;51.418;7.572;2024-03-08T05:04:03;33.25;;;22.13;;
45887;SDS011;31595;51.418;7.572;2024-03-08T05:06:31;30.13;;;21.90;;
45887;SDS011;31595;51.418;7.572;2024-03-08T05:08:58;29.08;;;21.48;;
45887;SDS011;31595;51.418;7.572;2024-03-08T05:11:25;30.42;;;22.35;;
45887;SDS011;31595;51.418;7.572;2024-03-08T05:13:53;31.60;;;22.42;;
45887;SDS011;31595;51.418;7.572;2024-03-08T05:16:20;31.90;;;22.92;;
45887;SDS011;31595;51.418;7.572;2024-03-08T05:18:48;31.00;;;22.35;;
45887;SDS011;31595;51.418;7.572;2024-03-08T05:21:14;32.25;;;23.38;;
45887;SDS011;31595;51.418;7.572;2024-03-08T05:23:45;33.97;;;23.50;;
45887;SDS011;31595;51.418;7.572;2024-03-08T05:26:12;34.70;;;23.70;;
45887;SDS011;31595;51.418;7.572;2024-03-08T05:28:39;31.75;;;22.88;;
45887;SDS011;31595;51.418;7.572;2024-03-08T05:31:07;32.38;;;22.58;;
45887;SDS011;31595;51.418;7.572;2024-03-08T05:33:34;33.85;;;23.60;;
45887;SDS011;31595;51.418;7.572;2024-03-08T05:36:01;35.38;;;22.38;;
45887;SDS011;31595;51.418;7.572;2024-03-08T05:38:28;32.88;;;23.48;;
45887;SDS011;31595;51.418;7.572;2024-03-08T05:40:55;35.17;;;23.35;;
45887;SDS011;31595;51.418;7.572;2024-03-08T05:43:22;37.20;;;24.10;;
45887;SDS011;31595;51.418;7.572;2024-03-08T05:45:48;37.42;;;25.23;;
45887;SDS011;31595;51.418;7.572;2024-03-08T05:48:17;37.25;;;25.10;;
45887;SDS011;31595;51.418;7.572;2024-03-08T05:50:44;35.65;;;24.65;;
45887;SDS011;31595;51.418;7.572;2024-03-08T05:53:11;35.75;;;25.20;;
45887;SDS011;31595;51.418;7.572;2024-03-08T05:55:38;35.85;;;23.67;;
45887;SDS011;31595;51.418;7.572;2024-03-08T05:58:06;35.42;;;24.40;;
45887;SDS011;31595;51.418;7.572;2024-03-08T06:00:33;36.75;;;25.48;;
45887;SDS011;31595;51.418;7.572;2024-03-08T06:03:01;35.17;;;23.90;;
45887;SDS011;31595;51.418;7.572;2024-03-08T06:05:30;34.10;;;24.42;;
45887;SDS011;31595;51.418;7.572;2024-03-08T06:07:56;39.60;;;26.33;;
45887;SDS011;31595;51.418;7.572;2024-03-08T06:10:23;37.80;;;24.70;;
45887;SDS011;31595;51.418;7.572;2024-03-08T06:12:50;34.60;;;23.15;;
45887;SDS011;31595;51.418;7.572;2024-03-08T06:15:17;35.72;;;23.63;;
45887;SDS011;31595;51.418;7.572;2024-03-08T06:17:46;33.35;;;23.65;;
45887;SDS011;31595;51.418;7.572;2024-03-08T06:20:13;35.95;;;23.83;;
45887;SDS011;31595;51.418;7.572;2024-03-08T06:22:41;33.08;;;22.83;;
45887;SDS011;31595;51.418;7.572;2024-03-08T06:25:10;34.15;;;23.65;;
45887;SDS011;31595;51.418;7.572;2024-03-08T06:27:39;39.47;;;26.48;;
45887;SDS011;31595;51.418;7.572;2024-03-08T06:30:05;38.97;;;26.17;;
45887;SDS011;31595;51.418;7.572;2024-03-08T06:32:34;38.35;;;25.15;;
45887;SDS011;31595;51.418;7.572;2024-03-08T06:35:01;38.85;;;26.10;;
45887;SDS011;31595;51.418;7.572;2024-03-08T06:37:31;30.73;;;22.38;;
45887;SDS011;31595;51.418;7.572;2024-03-08T06:39:59;31.67;;;21.73;;
45887;SDS011;31595;51.418;7.572;2024-03-08T06:42:26;31.58;;;21.92;;
45887;SDS011;31595;51.418;7.572;2024-03-08T06:44:53;29.08;;;19.90;;
45887;SDS011;31595;51.418;7.572;2024-03-08T06:47:25;30.42;;;22.17;;
45887;SDS011;31595;51.418;7.572;2024-03-08T06:49:52;29.17;;;19.60;;
45887;SDS011;31595;51.418;7.572;2024-03-08T06:52:18;28.52;;;19.05;;
45887;SDS011;31595;51.418;7.572;2024-03-08T06:54:45;25.73;;;18.92;;
45887;SDS011;31595;51.418;7.572;2024-03-08T06:57:13;28.02;;;19.30;;
45887;SDS011;31595;51.418;7.572;2024-03-08T06:59:42;22.00;;;17.17;;
45887;SDS011;31595;51.418;7.572;2024-03-08T07:02:09;22.48;;;17.42;;
45887;SDS011;31595;51.418;7.572;2024-03-08T07:04:36;25.48;;;18.98;;
45887;SDS011;31595;51.418;7.572;2024-03-08T07:07:03;23.27;;;17.73;;
45887;SDS011;31595;51.418;7.572;2024-03-08T07:09:30;23.40;;;17.65;;
45887;SDS011;31595;51.418;7.572;2024-03-08T07:11:58;24.52;;;18.63;;
45887;SDS011;31595;51.418;7.572;2024-03-08T07:14:26;23.40;;;17.55;;
45887;SDS011;31595;51.418;7.572;2024-03-08T07:16:53;28.27;;;20.75;;
45887;SDS011;31595;51.418;7.572;2024-03-08T07:19:21;22.95;;;18.35;;
45887;SDS011;31595;51.418;7.572;2024-03-08T07:21:48;21.63;;;18.92;;
45887;SDS011;31595;51.418;7.572;2024-03-08T07:24:14;25.58;;;19.35;;
45887;SDS011;31595;51.418;7.572;2024-03-08T07:26:58;22.58;;;18.10;;
45887;SDS011;31595;51.418;7.572;2024-03-08T07:29:26;26.02;;;20.17;;
45887;SDS011;31595;51.418;7.572;2024-03-08T07:31:53;23.45;;;18.90;;
45887;SDS011;31595;51.418;7.572;2024-03-08T07:34:33;23.90;;;19.33;;
45887;SDS011;31595;51.418;7.572;2024-03-08T07:37:00;21.88;;;18.77;;
45887;SDS011;31595;51.418;7.572;2024-03-08T07:39:26;24.52;;;18.77;;
45887;SDS011;31595;51.418;7.572;2024-03-08T07:41:53;23.30;;;18.75;;
45887;SDS011;31595;51.418;7.572;2024-03-08T07:44:20;22.95;;;18.80;;
45887;SDS011;31595;51.418;7.572;2024-03-08T07:46:48;26.80;;;18.63;;
45887;SDS011;31595;51.418;7.572;2024-03-08T07:49:15;23.85;;;18.60;;
45887;SDS011;31595;51.418;7.572;2024-03-08T07:51:42;21.15;;;18.85;;
45887;SDS011;31595;51.418;7.572;2024-03-08T07:54:09;22.23;;;17.15;;
45887;SDS011;31595;51.418;7.572;2024-03-08T07:56:35;19.92;;;17.83;;
45887;SDS011;31595;51.418;7.572;2024-03-08T07:59:03;20.45;;;18.00;;
45887;SDS011;31595;51.418;7.572;2024-03-08T08:01:30;22.23;;;19.40;;
45887;SDS011;31595;51.418;7.572;2024-03-08T08:04:00;21.15;;;18.33;;
45887;SDS011;31595;51.418;7.572;2024-03-08T08:06:27;21.27;;;18.67;;
45887;SDS011;31595;51.418;7.572;2024-03-08T08:08:57;21.98;;;18.38;;
45887;SDS011;31595;51.418;7.572;2024-03-08T08:11:25;20.27;;;17.88;;
45887;SDS011;31595;51.418;7.572;2024-03-08T08:13:53;19.13;;;17.23;;
45887;SDS011;31595;51.418;7.572;2024-03-08T08:16:22;20.92;;;18.67;;
45887;SDS011;31595;51.418;7.572;2024-03-08T08:18:50;18.98;;;17.05;;
45887;SDS011;31595;51.418;7.572;2024-03-08T08:21:19;19.75;;;17.73;;
45887;SDS011;31595;51.418;7.572;2024-03-08T08:23:47;19.70;;;17.70;;
45887;SDS011;31595;51.418;7.572;2024-03-08T08:26:14;19.70;;;17.60;;
45887;SDS011;31595;51.418;7.572;2024-03-08T08:28:41;20.00;;;17.90;;
45887;SDS011;31595;51.418;7.572;2024-03-08T08:31:08;19.50;;;17.50;;
45887;SDS011;31595;51.418;7.572;2024-03-08T08:33:35;20.20;;;17.92;;
45887;SDS011;31595;51.418;7.572;2024-03-08T08:36:02;19.33;;;17.42;;
45887;SDS011;31595;51.418;7.572;2024-03-08T08:38:30;19.65;;;17.75;;
45887;SDS011;31595;51.418;7.572;2024-03-08T08:40:57;19.63;;;17.58;;
45887;SDS011;31595;51.418;7.572;2024-03-08T08:43:24;19.40;;;17.40;;
45887;SDS011;31595;51.418;7.572;2024-03-08T08:45:52;18.85;;;16.85;;
45887;SDS011;31595;51.418;7.572;2024-03-08T08:48:20;19.48;;;17.48;;
45887;SDS011;31595;51.418;7.572;2024-03-08T08:50:46;20.15;;;18.15;;
45887;SDS011;31595;51.418;7.572;2024-03-08T08:53:14;18.85;;;16.85;;
45887;SDS011;31595;51.418;7.572;2024-03-08T08:55:43;19.50;;;17.50;;
45887;SDS011;31595;51.418;7.572;2024-03-08T08:58:11;18.83;;;16.83;;
45887;SDS011;31595;51.418;7.572;2024-03-08T09:00:39;19.70;;;17.00;;
45887;SDS011;31595;51.418;7.572;2024-03-08T09:03:06;19.40;;;17.30;;
45887;SDS011;31595;51.418;7.572;2024-03-08T09:05:33;18.45;;;16.55;;
45887;SDS011;31595;51.418;7.572;2024-03-08T09:08:00;18.10;;;16.30;;
45887;SDS011;31595;51.418;7.572;2024-03-08T09:10:28;18.25;;;16.40;;
45887;SDS011;31595;51.418;7.572;2024-03-08T09:12:56;18.30;;;16.55;;
45887;SDS011;31595;51.418;7.572;2024-03-08T09:15:24;18.38;;;16.58;;
45887;SDS011;31595;51.418;7.572;2024-03-08T09:20:20;18.13;;;16.42;;
45887;SDS011;31595;51.418;7.572;2024-03-08T09:22:47;18.80;;;17.00;;
45887;SDS011;31595;51.418;7.572;2024-03-08T09:25:14;18.30;;;16.48;;
45887;SDS011;31595;51.418;7.572;2024-03-08T09:27:40;18.13;;;16.30;;
45887;SDS011;31595;51.418;7.572;2024-03-08T09:30:09;17.85;;;16.08;;
45887;SDS011;31595;51.418;7.572;2024-03-08T09:32:38;18.02;;;16.23;;
45887;SDS011;31595;51.418;7.572;2024-03-08T09:35:05;18.23;;;16.42;;
45887;SDS011;31595;51.418;7.572;2024-03-08T09:37:33;17.92;;;16.13;;
45887;SDS011;31595;51.418;7.572;2024-03-08T09:40:00;17.92;;;16.25;;
45887;SDS011;31595;51.418;7.572;2024-03-08T09:42:30;18.52;;;16.73;;
45887;SDS011;31595;51.418;7.572;2024-03-08T09:44:57;18.25;;;16.55;;
45887;SDS011;31595;51.418;7.572;2024-03-08T09:47:25;16.80;;;15.20;;
45887;SDS011;31595;51.418;7.572;2024-03-08T09:49:59;18.83;;;17.02;;
45887;SDS011;31595;51.418;7.572;2024-03-08T09:52:26;17.98;;;16.08;;
45887;SDS011;31595;51.418;7.572;2024-03-08T09:54:53;18.40;;;16.52;;
45887;SDS011;31595;51.418;7.572;2024-03-08T09:57:20;17.73;;;15.93;;
45887;SDS011;31595;51.418;7.572;2024-03-08T09:59:47;17.33;;;15.70;;
45887;SDS011;31595;51.418;7.572;2024-03-08T10:02:16;17.00;;;15.30;;
45887;SDS011;31595;51.418;7.572;2024-03-08T10:04:45;18.53;;;16.73;;
45887;SDS011;31595;51.418;7.572;2024-03-08T10:07:13;18.17;;;16.40;;
45887;SDS011;31595;51.418;7.572;2024-03-08T10:09:40;17.85;;;16.25;;
45887;SDS011;31595;51.418;7.572;2024-03-08T10:12:07;18.10;;;16.45;;
45887;SDS011;31595;51.418;7.572;2024-03-08T10:14:38;18.73;;;16.85;;
45887;SDS011;31595;51.418;7.572;2024-03-08T10:17:05;19.02;;;17.20;;
45887;SDS011;31595;51.418;7.572;2024-03-08T10:19:32;19.38;;;17.58;;
45887;SDS011;31595;51.418;7.572;2024-03-08T10:22:01;19.58;;;17.83;;
45887;SDS011;31595;51.418;7.572;2024-03-08T10:24:30;18.85;;;16.92;;
45887;SDS011;31595;51.418;7.572;2024-03-08T10:26:59;18.58;;;16.88;;
45887;SDS011;31595;51.418;7.572;2024-03-08T10:29:27;19.52;;;17.65;;
45887;SDS011;31595;51.418;7.572;2024-03-08T10:31:54;18.70;;;17.00;;
45887;SDS011;31595;51.418;7.572;2024-03-08T10:34:22;23.77;;;18.80;;
45887;SDS011;31595;51.418;7.572;2024-03-08T10:36:50;19.48;;;17.48;;
45887;SDS011;31595;51.418;7.572;2024-03-08T10:39:20;18.20;;;16.40;;
45887;SDS011;31595;51.418;7.572;2024-03-08T10:41:49;20.20;;;18.23;;
45887;SDS011;31595;51.418;7.572;2024-03-08T10:44:20;20.38;;;18.00;;
45887;SDS011;31595;51.418;7.572;2024-03-08T10:46:55;20.85;;;18.65;;
45887;SDS011;31595;51.418;7.572;2024-03-08T10:49:25;18.00;;;16.20;;
45887;SDS011;31595;51.418;7.572;2024-03-08T10:51:52;20.02;;;18.13;;
45887;SDS011;31595;51.418;7.572;2024-03-08T10:54:21;19.13;;;17.40;;
45887;SDS011;31595;51.418;7.572;2024-03-08T10:56:50;19.55;;;17.65;;
45887;SDS011;31595;51.418;7.572;2024-03-08T10:59:17;13.82;;;12.63;;
45887;SDS011;31595;51.418;7.572;2024-03-08T11:01:44;13.73;;;12.45;;
45887;SDS011;31595;51.418;7.572;2024-03-08T11:04:11;13.52;;;12.43;;
45887;SDS011;31595;51.418;7.572;2024-03-08T11:06:42;12.05;;;10.85;;
45887;SDS011;31595;51.418;7.572;2024-03-08T11:12:19;9.90;;;9.00;;
45887;SDS011;31595;51.418;7.572;2024-03-08T11:14:47;10.40;;;9.40;;
45887;SDS011;31595;51.418;7.572;2024-03-08T11:17:15;10.40;;;9.30;;
45887;SDS011;31595;51.418;7.572;2024-03-08T11:19:46;11.18;;;9.93;;
45887;SDS011;31595;51.418;7.572;2024-03-08T11:22:23;10.82;;;9.75;;
45887;SDS011;31595;51.418;7.572;2024-03-08T11:27:20;11.52;;;10.38;;
45887;SDS011;31595;51.418;7.572;2024-03-08T11:29:59;11.88;;;10.55;;
45887;SDS011;31595;51.418;7.572;2024-03-08T11:34:53;11.23;;;10.02;;
45887;SDS011;31595;51.418;7.572;2024-03-08T11:37:21;12.73;;;9.85;;
45887;SDS011;31595;51.418;7.572;2024-03-08T11:39:49;11.50;;;10.30;;
45887;SDS011;31595;51.418;7.572;2024-03-08T11:42:16;10.90;;;9.73;;
45887;SDS011;31595;51.418;7.572;2024-03-08T11:44:45;11.27;;;10.18;;
45887;SDS011;31595;51.418;7.572;2024-03-08T11:47:11;10.75;;;9.65;;
45887;SDS011;31595;51.418;7.572;2024-03-08T11:49:40;10.77;;;9.77;;
45887;SDS011;31595;51.418;7.572;2024-03-08T11:52:10;10.77;;;9.70;;
45887;SDS011;31595;51.418;7.572;2024-03-08T11:57:04;9.95;;;8.95;;
45887;SDS011;31595;51.418;7.572;2024-03-08T11:59:31;9.73;;;8.82;;
45887;SDS011;31595;51.418;7.572;2024-03-08T12:02:00;10.35;;;9.25;;
45887;SDS011;31595;51.418;7.572;2024-03-08T12:04:27;10.55;;;8.80;;
45887;SDS011;31595;51.418;7.572;2024-03-08T12:06:54;9.10;;;8.30;;
45887;SDS011;31595;51.418;7.572;2024-03-08T12:09:21;8.50;;;7.55;;
45887;SDS011;31595;51.418;7.572;2024-03-08T12:11:48;8.77;;;7.88;;
45887;SDS011;31595;51.418;7.572;2024-03-08T12:14:16;8.67;;;7.80;;
45887;SDS011;31595;51.418;7.572;2024-03-08T12:16:43;9.88;;;7.60;;
45887;SDS011;31595;51.418;7.572;2024-03-08T12:19:11;8.57;;;7.68;;
45887;SDS011;31595;51.418;7.572;2024-03-08T12:21:38;9.10;;;8.18;;
45887;SDS011;31595;51.418;7.572;2024-03-08T12:24:14;9.35;;;8.27;;
45887;SDS011;31595;51.418;7.572;2024-03-08T12:26:45;9.70;;;8.18;;
45887;SDS011;31595;51.418;7.572;2024-03-08T12:29:15;9.90;;;8.55;;
45887;SDS011;31595;51.418;7.572;2024-03-08T12:31:43;9.07;;;8.20;;
45887;SDS011;31595;51.418;7.572;2024-03-08T12:34:11;9.93;;;8.65;;
45887;SDS011;31595;51.418;7.572;2024-03-08T12:36:39;9.05;;;8.15;;
45887;SDS011;31595;51.418;7.572;2024-03-08T12:39:10;9.15;;;8.35;;
45887;SDS011;31595;51.418;7.572;2024-03-08T12:41:39;9.18;;;8.20;;
45887;SDS011;31595;51.418;7.572;2024-03-08T12:44:06;8.65;;;7.75;;
45887;SDS011;31595;51.418;7.572;2024-03-08T12:46:35;8.50;;;7.68;;
45887;SDS011;31595;51.418;7.572;2024-03-08T12:49:02;8.57;;;7.78;;
45887;SDS011;31595;51.418;7.572;2024-03-08T12:51:31;8.13;;;7.33;;
45887;SDS011;31595;51.418;7.572;2024-03-08T12:56:28;8.85;;;8.05;;
45887;SDS011;31595;51.418;7.572;2024-03-08T12:58:57;8.23;;;7.38;;
45887;SDS011;31595;51.418;7.572;2024-03-08T13:01:24;8.65;;;7.78;;
45887;SDS011;31595;51.418;7.572;2024-03-08T13:03:52;9.30;;;8.10;;
45887;SDS011;31595;51.418;7.572;2024-03-08T13:06:19;8.48;;;7.57;;
45887;SDS011;31595;51.418;7.572;2024-03-08T13:08:48;8.73;;;7.90;;
45887;SDS011;31595;51.418;7.572;2024-03-08T13:11:15;10.27;;;8.73;;
45887;SDS011;31595;51.418;7.572;2024-03-08T13:13:42;9.43;;;8.52;;
45887;SDS011;31595;51.418;7.572;2024-03-08T13:16:10;9.02;;;8.13;;
45887;SDS011;31595;51.418;7.572;2024-03-08T13:18:40;9.20;;;7.70;;
45887;SDS011;31595;51.418;7.572;2024-03-08T13:21:07;9.43;;;8.52;;
45887;SDS011;31595;51.418;7.572;2024-03-08T13:23:35;9.43;;;8.40;;
45887;SDS011;31595;51.418;7.572;2024-03-08T13:26:06;10.07;;;8.75;;
45887;SDS011;31595;51.418;7.572;2024-03-08T13:28:33;12.90;;;9.38;;
45887;SDS011;31595;51.418;7.572;2024-03-08T13:33:28;9.52;;;8.60;;
45887;SDS011;31595;51.418;7.572;2024-03-08T13:35:55;10.27;;;8.93;;
45887;SDS011;31595;51.418;7.572;2024-03-08T13:38:23;11.07;;;9.00;;
45887;SDS011;31595;51.418;7.572;2024-03-08T13:40:49;10.40;;;9.27;;
45887;SDS011;31595;51.418;7.572;2024-03-08T13:43:18;10.52;;;9.43;;
45887;SDS011;31595;51.418;7.572;2024-03-08T13:45:45;11.95;;;10.35;;
45887;SDS011;31595;51.418;7.572;2024-03-08T13:48:12;11.45;;;10.00;;
45887;SDS011;31595;51.418;7.572;2024-03-08T13:50:39;10.85;;;9.40;;
45887;SDS011;31595;51.418;7.572;2024-03-08T13:53:06;10.52;;;9.45;;
45887;SDS011;31595;51.418;7.572;2024-03-08T13:55:35;10.73;;;9.63;;
45887;SDS011;31595;51.418;7.572;2024-03-08T13:58:02;11.82;;;10.63;;
45887;SDS011;31595;51.418;7.572;2024-03-08T14:00:30;11.85;;;9.45;;
45887;SDS011;31595;51.418;7.572;2024-03-08T14:02:58;10.85;;;9.75;;
45887;SDS011;31595;51.418;7.572;2024-03-08T14:05:25;11.10;;;9.75;;
45887;SDS011;31595;51.418;7.572;2024-03-08T14:07:52;11.13;;;9.90;;
45887;SDS011;31595;51.418;7.572;2024-03-08T14:10:19;11.05;;;9.85;;
45887;SDS011;31595;51.418;7.572;2024-03-08T14:12:48;12.68;;;9.80;;
45887;SDS011;31595;51.418;7.572;2024-03-08T14:15:15;13.10;;;10.20;;
45887;SDS011;31595;51.418;7.572;2024-03-08T14:17:44;12.63;;;11.20;;
45887;SDS011;31595;51.418;7.572;2024-03-08T14:20:12;12.07;;;10.82;;
45887;SDS011;31595;51.418;7.572;2024-03-08T14:22:39;12.15;;;10.80;;
45887;SDS011;31595;51.418;7.572;2024-03-08T14:25:06;13.32;;;10.50;;
45887;SDS011;31595;51.418;7.572;2024-03-08T14:27:42;11.90;;;10.32;;
45887;SDS011;31595;51.418;7.572;2024-03-08T14:30:09;14.65;;;11.15;;
45887;SDS011;31595;51.418;7.572;2024-03-08T14:32:36;13.13;;;10.50;;
45887;SDS011;31595;51.418;7.572;2024-03-08T14:35:05;12.30;;;10.90;;
45887;SDS011;31595;51.418;7.572;2024-03-08T14:37:32;12.07;;;10.87;;
45887;SDS011;31595;51.418;7.572;2024-03-08T14:39:59;12.38;;;11.07;;
45887;SDS011;31595;51.418;7.572;2024-03-08T14:42:26;13.70;;;10.73;;
45887;SDS011;31595;51.418;7.572;2024-03-08T14:44:52;13.85;;;12.18;;
45887;SDS011;31595;51.418;7.572;2024-03-08T14:47:19;13.60;;;11.95;;